Time;durP1;ratioP1;P1;durP2;ratioP2;P2;SDS_P1;SDS_P2;PMS_P1;PMS_P2;Temp;Humidity;BMP_temperature;BMP_pressure;BME280_temperature;BME280_humidity;BME280_pressure;Samples;Min_cycle;Max_cycle;Signal;HPM_P1;HPM_P2
2022/09/30 00:01:35;;;;;;;;;;;19.90;69.30;;;;;;4513585;31;20062;-74
2022/09/30 00:04:01;;;;;;;;;;;19.90;69.40;;;;;;4512487;31;20035;-74
2022/09/30 00:06:28;;;;;;;;;;;19.90;69.40;;;;;;4513056;31;20049;-74
2022/09/30 00:08:55;;;;;;;;;;;19.90;69.30;;;;;;4512779;31;20063;-74
2022/09/30 00:11:22;;;;;;;;;;;19.90;69.40;;;;;;4512491;31;20177;-74
2022/09/30 00:13:49;;;;;;;;;;;19.90;69.30;;;;;;4513042;31;20033;-74
2022/09/30 00:16:15;;;;;;;;;;;19.90;69.30;;;;;;4512867;31;20021;-74
2022/09/30 00:18:42;;;;;;;;;;;19.90;69.30;;;;;;4512328;31;20378;-74
2022/09/30 00:21:08;;;;;;;;;;;19.80;69.20;;;;;;4509303;31;20033;-74
2022/09/30 00:23:35;;;;;;;;;;;19.80;69.30;;;;;;4508129;31;20031;-74
2022/09/30 00:26:02;;;;;;;;;;;19.80;69.30;;;;;;4518121;31;20032;-74
2022/09/30 00:28:29;;;;;;;;;;;19.80;69.20;;;;;;4511041;31;20072;-74
2022/09/30 00:30:59;;;;;;;;;;;19.80;69.20;;;;;;4513167;31;20028;-74
2022/09/30 00:33:25;;;;;;;;;;;19.80;69.20;;;;;;4512100;31;20025;-74
2022/09/30 00:35:51;;;;;;;;;;;19.80;69.20;;;;;;4516486;31;20185;-74
2022/09/30 00:38:16;;;;;;;;;;;19.80;69.20;;;;;;4515123;31;20495;-74
2022/09/30 00:40:42;;;;;;;;;;;19.80;69.20;;;;;;4510982;31;20037;-74
2022/09/30 00:43:14;;;;;;;;;;;19.80;69.20;;;;;;4507601;31;20047;-74
2022/09/30 00:45:41;;;;;;;;;;;19.80;69.20;;;;;;4515041;31;20175;-74
2022/09/30 00:48:11;;;;;;;;;;;19.80;69.30;;;;;;4515775;31;20025;-74
2022/09/30 00:50:41;;;;;;;;;;;19.80;69.20;;;;;;4514844;31;20506;-74
2022/09/30 00:53:17;;;;;;;;;;;19.80;69.20;;;;;;4512290;31;20170;-74
2022/09/30 00:55:43;;;;;;;;;;;19.80;69.20;;;;;;4506251;31;20450;-74
2022/09/30 00:58:10;;;;;;;;;;;19.80;69.20;;;;;;4514867;31;20013;-74
2022/09/30 01:00:36;;;;;;;;;;;19.70;69.20;;;;;;4511622;31;20040;-74
2022/09/30 01:03:03;;;;;;;;;;;19.70;69.20;;;;;;4499118;31;20036;-74
2022/09/30 01:05:31;;;;;;;;;;;19.70;69.20;;;;;;4514742;31;20099;-74
2022/09/30 01:07:58;;;;;;;;;;;19.70;69.20;;;;;;4526988;31;20029;-74
2022/09/30 01:10:24;;;;;;;;;;;19.70;69.20;;;;;;4515547;31;20130;-74
2022/09/30 01:12:50;;;;;;;;;;;19.70;70.00;;;;;;4526836;31;20520;-74
2022/09/30 01:15:16;;;;;;;;;;;19.70;69.10;;;;;;4514790;31;20481;-74
2022/09/30 01:17:42;;;;;;;;;;;19.70;69.10;;;;;;4515013;31;20043;-74
2022/09/30 01:20:40;;;;;;;;;;;19.70;69.10;;;;;;4514699;31;20029;-74
2022/09/30 01:23:20;;;;;;;;;;;19.70;69.10;;;;;;4480936;31;20033;-74
2022/09/30 01:25:51;;;;;;;;;;;19.70;69.10;;;;;;4501317;31;20039;-74
2022/09/30 01:28:17;;;;;;;;;;;19.70;69.10;;;;;;4514766;31;20044;-74
2022/09/30 01:30:48;;;;;;;;;;;19.70;69.00;;;;;;4514845;31;20095;-74
2022/09/30 01:33:14;;;;;;;;;;;19.70;69.10;;;;;;4514343;31;20087;-74
2022/09/30 01:35:49;;;;;;;;;;;19.70;69.10;;;;;;4514071;31;20143;-74
2022/09/30 01:38:20;;;;;;;;;;;19.70;69.00;;;;;;4507777;31;20098;-74
2022/09/30 01:40:49;;;;;;;;;;;19.60;69.00;;;;;;4510734;31;20060;-74
2022/09/30 01:43:18;;;;;;;;;;;19.60;69.00;;;;;;4514331;31;20159;-75
2022/09/30 01:45:48;;;;;;;;;;;19.70;69.10;;;;;;4513454;31;20024;-74
2022/09/30 01:48:38;;;;;;;;;;;19.60;69.00;;;;;;4515186;31;20025;-75
2022/09/30 01:51:06;;;;;;;;;;;19.60;69.00;;;;;;4513969;31;20040;-74
2022/09/30 01:53:32;;;;;;;;;;;19.60;68.90;;;;;;4514648;31;20307;-74
2022/09/30 01:55:57;;;;;;;;;;;19.60;69.00;;;;;;4514193;31;20032;-74
2022/09/30 01:58:29;;;;;;;;;;;19.60;69.00;;;;;;4512873;31;20396;-75
2022/09/30 02:00:58;;;;;;;;;;;19.60;69.00;;;;;;4513514;31;20070;-74
2022/09/30 02:03:36;;;;;;;;;;;19.60;68.90;;;;;;4512642;31;20184;-74
2022/09/30 02:06:10;;;;;;;;;;;19.60;69.00;;;;;;4504276;31;20040;-75
2022/09/30 02:08:48;;;;;;;;;;;19.60;69.00;;;;;;4509808;31;20021;-74
2022/09/30 02:11:20;;;;;;;;;;;19.60;69.00;;;;;;4508346;31;20038;-74
2022/09/30 02:13:48;;;;;;;;;;;19.60;69.00;;;;;;4514101;31;20107;-74
2022/09/30 02:16:16;;;;;;;;;;;19.60;69.00;;;;;;4512657;31;20160;-74
2022/09/30 02:18:59;;;;;;;;;;;19.60;69.00;;;;;;4514612;31;20032;-74
2022/09/30 02:21:29;;;;;;;;;;;19.60;69.00;;;;;;4502852;31;20037;-74
2022/09/30 02:23:59;;;;;;;;;;;19.60;69.00;;;;;;4512082;31;20025;-74
2022/09/30 02:26:26;;;;;;;;;;;19.60;68.90;;;;;;4504664;31;20028;-74
2022/09/30 02:29:05;;;;;;;;;;;19.60;68.90;;;;;;4511934;31;20485;-74
2022/09/30 02:31:33;;;;;;;;;;;19.50;69.80;;;;;;4513707;31;20079;-74
2022/09/30 02:34:03;;;;;;;;;;;19.50;68.90;;;;;;4513299;31;20025;-74
2022/09/30 02:36:35;;;;;;;;;;;19.50;68.80;;;;;;4514170;31;20090;-74
2022/09/30 02:39:03;;;;;;;;;;;19.50;68.90;;;;;;4513874;31;20095;-74
2022/09/30 02:41:32;;;;;;;;;;;19.50;68.80;;;;;;4513716;31;20025;-74
2022/09/30 02:43:59;;;;;;;;;;;19.50;68.80;;;;;;4512748;31;20043;-74
2022/09/30 02:46:32;;;;;;;;;;;19.50;68.80;;;;;;4525302;31;20039;-74
2022/09/30 02:48:58;;;;;;;;;;;19.50;68.80;;;;;;4526285;31;20037;-74
2022/09/30 02:51:31;;;;;;;;;;;19.50;68.80;;;;;;4512229;31;20035;-74
2022/09/30 02:54:13;;;;;;;;;;;19.50;68.80;;;;;;4513587;31;20033;-75
2022/09/30 02:56:58;;;;;;;;;;;19.50;68.80;;;;;;4513429;31;20446;-74
2022/09/30 02:59:25;;;;;;;;;;;19.50;68.80;;;;;;4511981;31;20036;-74
2022/09/30 03:01:51;;;;;;;;;;;19.50;68.80;;;;;;4513896;31;20067;-74
2022/09/30 03:04:24;;;;;;;;;;;19.50;68.80;;;;;;4513432;31;20140;-74
2022/09/30 03:06:50;;;;;;;;;;;19.50;68.80;;;;;;4509453;31;20106;-75
2022/09/30 03:09:16;;;;;;;;;;;19.50;68.70;;;;;;4505012;31;20207;-74
2022/09/30 03:11:41;;;;;;;;;;;19.40;68.70;;;;;;4513032;31;20017;-75
2022/09/30 03:14:19;;;;;;;;;;;19.40;68.70;;;;;;4512736;31;20031;-74
2022/09/30 03:16:47;;;;;;;;;;;19.40;68.60;;;;;;4512862;31;20084;-74
2022/09/30 03:19:32;;;;;;;;;;;19.40;68.60;;;;;;4512574;31;20037;-74
2022/09/30 03:22:00;;;;;;;;;;;19.40;68.60;;;;;;4513195;31;20073;-74
2022/09/30 03:24:36;;;;;;;;;;;19.40;68.60;;;;;;4513071;31;20043;-74
2022/09/30 03:27:10;;;;;;;;;;;19.40;68.60;;;;;;4513932;31;20061;-74
2022/09/30 03:29:36;;;;;;;;;;;19.40;68.60;;;;;;4511754;31;20575;-74
2022/09/30 03:32:09;;;;;;;;;;;19.40;68.60;;;;;;4511907;31;20158;-74
2022/09/30 03:34:54;;;;;;;;;;;19.40;68.60;;;;;;4513180;31;20038;-74
2022/09/30 03:37:46;;;;;;;;;;;19.40;68.60;;;;;;4508837;31;20052;-74
2022/09/30 03:40:24;;;;;;;;;;;19.40;68.60;;;;;;4505813;31;20028;-74
2022/09/30 03:42:53;;;;;;;;;;;19.40;68.60;;;;;;4508971;31;20098;-74
2022/09/30 03:45:30;;;;;;;;;;;19.40;68.60;;;;;;4506877;31;20091;-74
2022/09/30 03:47:58;;;;;;;;;;;19.40;68.60;;;;;;4497545;31;20084;-74
2022/09/30 03:50:24;;;;;;;;;;;19.40;68.50;;;;;;4503905;31;20021;-74
2022/09/30 03:52:51;;;;;;;;;;;19.40;68.60;;;;;;4509833;31;20035;-74
2022/09/30 03:55:18;;;;;;;;;;;19.30;68.40;;;;;;4501561;31;20024;-74
2022/09/30 03:57:44;;;;;;;;;;;19.30;68.50;;;;;;4525260;31;20028;-74
2022/09/30 04:00:10;;;;;;;;;;;19.30;68.50;;;;;;4525012;31;20047;-74
2022/09/30 04:02:36;;;;;;;;;;;19.30;68.50;;;;;;4525125;31;20032;-74
2022/09/30 04:05:03;;;;;;;;;;;19.30;68.50;;;;;;4512938;31;20250;-74
2022/09/30 04:07:28;;;;;;;;;;;19.30;68.40;;;;;;4512475;31;20032;-74
2022/09/30 04:09:55;;;;;;;;;;;19.30;68.50;;;;;;4514302;31;20315;-74
2022/09/30 04:12:21;;;;;;;;;;;19.30;68.50;;;;;;4514427;31;20039;-74
2022/09/30 04:14:46;;;;;;;;;;;19.30;68.40;;;;;;4516035;31;20045;-74
2022/09/30 04:17:12;;;;;;;;;;;19.30;68.40;;;;;;4515692;31;20052;-75
2022/09/30 04:19:39;;;;;;;;;;;19.30;68.40;;;;;;4515859;31;20471;-74
2022/09/30 04:22:05;;;;;;;;;;;19.30;68.40;;;;;;4515892;31;20041;-74
2022/09/30 04:24:31;;;;;;;;;;;19.30;68.40;;;;;;4515439;31;20545;-74
2022/09/30 04:26:57;;;;;;;;;;;19.30;68.50;;;;;;4515284;31;20025;-74
2022/09/30 04:29:22;;;;;;;;;;;19.30;68.40;;;;;;4515198;31;20106;-74
2022/09/30 04:31:48;;;;;;;;;;;19.30;68.40;;;;;;4516166;31;20032;-75
2022/09/30 04:34:14;;;;;;;;;;;19.30;68.30;;;;;;4514393;31;20159;-74
2022/09/30 04:36:40;;;;;;;;;;;19.30;68.40;;;;;;4511922;31;20017;-74
2022/09/30 04:39:05;;;;;;;;;;;19.30;68.30;;;;;;4502930;31;20051;-75
2022/09/30 04:41:32;;;;;;;;;;;19.30;68.40;;;;;;4527682;31;20021;-74
2022/09/30 04:43:58;;;;;;;;;;;19.20;68.30;;;;;;4514519;31;20516;-74
2022/09/30 04:46:25;;;;;;;;;;;19.20;68.30;;;;;;4514973;31;20450;-74
2022/09/30 04:48:51;;;;;;;;;;;19.30;68.30;;;;;;4528376;31;20031;-74
2022/09/30 04:51:17;;;;;;;;;;;19.20;68.30;;;;;;4514952;31;20025;-74
2022/09/30 04:53:44;;;;;;;;;;;19.20;68.30;;;;;;4515446;31;20096;-74
2022/09/30 04:56:10;;;;;;;;;;;19.20;68.20;;;;;;4527560;31;20001;-74
2022/09/30 04:58:36;;;;;;;;;;;19.20;68.20;;;;;;4515025;31;20090;-75
2022/09/30 05:01:02;;;;;;;;;;;19.20;68.20;;;;;;4515803;31;20036;-74
2022/09/30 05:03:28;;;;;;;;;;;19.20;68.20;;;;;;4513416;31;20029;-74
2022/09/30 05:05:54;;;;;;;;;;;19.20;68.20;;;;;;4515831;31;20009;-74
2022/09/30 05:08:21;;;;;;;;;;;19.20;68.20;;;;;;4513604;31;20139;-74
2022/09/30 05:10:57;;;;;;;;;;;19.20;68.20;;;;;;4515200;31;20044;-74
2022/09/30 05:13:24;;;;;;;;;;;19.20;69.00;;;;;;4513656;31;20040;-74
2022/09/30 05:15:50;;;;;;;;;;;19.20;68.10;;;;;;4514797;31;20033;-74
2022/09/30 05:18:17;;;;;;;;;;;19.20;68.10;;;;;;4527680;31;20086;-74
2022/09/30 05:20:43;;;;;;;;;;;19.20;68.20;;;;;;4513187;31;20024;-74
2022/09/30 05:23:09;;;;;;;;;;;19.10;68.10;;;;;;4511676;31;20032;-74
2022/09/30 05:25:35;;;;;;;;;;;19.10;68.10;;;;;;4502429;31;20043;-74
2022/09/30 05:28:00;;;;;;;;;;;19.10;68.10;;;;;;4511122;31;20025;-75
2022/09/30 05:30:27;;;;;;;;;;;19.10;68.10;;;;;;4512426;31;20320;-74
2022/09/30 05:32:52;;;;;;;;;;;19.20;68.10;;;;;;4514605;31;20151;-74
2022/09/30 05:35:18;;;;;;;;;;;19.10;68.00;;;;;;4514294;31;20025;-74
2022/09/30 05:37:44;;;;;;;;;;;19.10;68.10;;;;;;4513917;31;20174;-75
2022/09/30 05:40:10;;;;;;;;;;;19.10;68.00;;;;;;4514556;31;20033;-74
2022/09/30 05:42:36;;;;;;;;;;;19.10;68.00;;;;;;4526458;31;20060;-74
2022/09/30 05:45:05;;;;;;;;;;;19.10;68.00;;;;;;4516225;31;20016;-74
2022/09/30 05:47:32;;;;;;;;;;;19.10;68.00;;;;;;4517058;31;20028;-74
2022/09/30 05:49:58;;;;;;;;;;;19.10;68.00;;;;;;4516036;31;20024;-74
2022/09/30 05:52:24;;;;;;;;;;;19.10;68.00;;;;;;4511258;31;20025;-74
2022/09/30 05:54:50;;;;;;;;;;;19.10;68.10;;;;;;4511143;31;20097;-74
2022/09/30 05:57:16;;;;;;;;;;;19.10;68.00;;;;;;4506066;31;20021;-74
2022/09/30 05:59:42;;;;;;;;;;;19.10;68.00;;;;;;4510606;31;20029;-74
2022/09/30 06:02:09;;;;;;;;;;;19.00;67.90;;;;;;4514535;31;20063;-74
2022/09/30 06:04:35;;;;;;;;;;;19.10;68.00;;;;;;4514260;31;20158;-74
2022/09/30 06:07:00;;;;;;;;;;;19.00;68.00;;;;;;4513002;31;20020;-74
2022/09/30 06:09:26;;;;;;;;;;;19.00;67.90;;;;;;4504692;31;20025;-74
2022/09/30 06:11:59;;;;;;;;;;;19.00;67.90;;;;;;4512672;31;20151;-74
2022/09/30 06:14:25;;;;;;;;;;;19.00;67.20;;;;;;4514820;31;20036;-74
2022/09/30 06:16:50;;;;;;;;;;;19.00;65.90;;;;;;4513270;31;20048;-74
2022/09/30 06:19:16;;;;;;;;;;;19.00;65.00;;;;;;4512529;31;20021;-74
2022/09/30 06:21:42;;;;;;;;;;;19.00;64.30;;;;;;4513496;31;20036;-74
2022/09/30 06:24:11;;;;;;;;;;;19.00;65.90;;;;;;4513554;31;20084;-74
2022/09/30 06:26:37;;;;;;;;;;;18.90;66.10;;;;;;4512678;31;20170;-74
2022/09/30 06:29:03;;;;;;;;;;;18.90;66.40;;;;;;4509914;31;20058;-73
2022/09/30 06:31:30;;;;;;;;;;;18.90;66.50;;;;;;4514183;31;20039;-74
2022/09/30 06:33:56;;;;;;;;;;;19.00;67.00;;;;;;4524558;31;20466;-74
2022/09/30 06:36:22;;;;;;;;;;;19.00;67.20;;;;;;4513471;31;20064;-74
2022/09/30 06:38:53;;;;;;;;;;;19.00;67.70;;;;;;4513143;31;20039;-73
2022/09/30 06:41:19;;;;;;;;;;;19.10;67.70;;;;;;4511771;31;20045;-73
2022/09/30 06:43:44;;;;;;;;;;;19.10;68.00;;;;;;4513438;31;20151;-74
2022/09/30 06:46:11;;;;;;;;;;;19.10;68.00;;;;;;4512133;31;20089;-75
2022/09/30 06:48:39;;;;;;;;;;;19.10;68.00;;;;;;4513956;31;20437;-76
2022/09/30 06:51:06;;;;;;;;;;;19.10;68.30;;;;;;4512034;31;20106;-76
2022/09/30 06:53:34;;;;;;;;;;;19.10;68.20;;;;;;4513737;31;20021;-75
2022/09/30 06:56:00;;;;;;;;;;;19.10;68.20;;;;;;4513585;31;20292;-74
2022/09/30 06:58:26;;;;;;;;;;;19.10;68.40;;;;;;4513037;31;20029;-74
2022/09/30 07:01:12;;;;;;;;;;;19.10;68.30;;;;;;4512905;31;20542;-74
2022/09/30 07:03:38;;;;;;;;;;;19.10;68.50;;;;;;4512915;31;20452;-75
2022/09/30 07:06:04;;;;;;;;;;;19.10;69.30;;;;;;4525986;31;20071;-74
2022/09/30 07:08:31;;;;;;;;;;;19.20;70.00;;;;;;4512066;31;20033;-73
2022/09/30 07:10:58;;;;;;;;;;;19.20;69.90;;;;;;4513312;31;20068;-74
2022/09/30 07:13:26;;;;;;;;;;;19.30;69.30;;;;;;4513168;31;20059;-73
2022/09/30 07:15:53;;;;;;;;;;;19.40;69.10;;;;;;4509317;31;20039;-74
2022/09/30 07:18:22;;;;;;;;;;;19.50;68.40;;;;;;4520060;31;20606;-74
2022/09/30 07:20:49;;;;;;;;;;;19.60;68.30;;;;;;4512733;31;20028;-74
2022/09/30 07:23:15;;;;;;;;;;;19.70;68.00;;;;;;4513787;31;20085;-74
2022/09/30 07:26:03;;;;;;;;;;;19.90;67.60;;;;;;4512992;31;20871;-73
2022/09/30 07:28:34;;;;;;;;;;;20.00;67.50;;;;;;4512959;31;20051;-74
2022/09/30 07:31:19;;;;;;;;;;;20.20;67.40;;;;;;4513571;31;20032;-73
2022/09/30 07:33:45;;;;;;;;;;;20.40;66.90;;;;;;4512083;31;20078;-73
2022/09/30 07:36:12;;;;;;;;;;;20.50;66.70;;;;;;4511085;31;20063;-73
2022/09/30 07:38:39;;;;;;;;;;;20.60;66.50;;;;;;4512345;31;20086;-72
2022/09/30 07:41:07;;;;;;;;;;;20.60;66.40;;;;;;4512461;31;20032;-73
2022/09/30 07:43:37;;;;;;;;;;;20.70;66.30;;;;;;4512094;31;20028;-69
2022/09/30 07:46:03;;;;;;;;;;;20.80;66.20;;;;;;4515241;31;20039;-74
2022/09/30 07:51:04;;;;;;;;;;;21.00;65.90;;;;;;4514318;31;20072;-73
2022/09/30 07:53:30;;;;;;;;;;;21.00;65.80;;;;;;4515737;31;20127;-74
2022/09/30 07:55:56;;;;;;;;;;;21.10;65.60;;;;;;4515917;31;20049;-71
2022/09/30 07:58:21;;;;;;;;;;;21.10;65.50;;;;;;4500795;31;20061;-72
2022/09/30 08:00:50;;;;;;;;;;;21.20;65.50;;;;;;4513918;31;20033;-69
2022/09/30 08:03:16;;;;;;;;;;;21.20;65.40;;;;;;4513548;31;20418;-70
2022/09/30 08:05:47;;;;;;;;;;;21.30;65.30;;;;;;4516004;31;20083;-70
2022/09/30 08:08:13;;;;;;;;;;;21.30;65.20;;;;;;4513166;31;20028;-71
2022/09/30 08:10:39;;;;;;;;;;;21.40;65.20;;;;;;4511878;31;20046;-70
2022/09/30 08:13:05;;;;;;;;;;;21.40;65.00;;;;;;4514809;31;20063;-70
2022/09/30 08:15:31;;;;;;;;;;;21.50;65.10;;;;;;4525420;31;20040;-71
2022/09/30 08:17:57;;;;;;;;;;;21.50;64.90;;;;;;4515140;31;20013;-70
2022/09/30 08:20:23;;;;;;;;;;;21.60;64.90;;;;;;4514299;31;20128;-71
2022/09/30 08:22:53;;;;;;;;;;;21.60;64.80;;;;;;4514346;31;20117;-71
2022/09/30 08:25:18;;;;;;;;;;;21.60;64.70;;;;;;4514366;31;20021;-71
2022/09/30 08:27:44;;;;;;;;;;;21.60;64.70;;;;;;4514963;31;20179;-70
2022/09/30 08:30:11;;;;;;;;;;;21.70;64.70;;;;;;4514476;31;20060;-68
2022/09/30 08:32:37;;;;;;;;;;;21.70;64.70;;;;;;4525556;31;20040;-70
2022/09/30 08:35:04;;;;;;;;;;;21.70;64.50;;;;;;4514774;31;20029;-68
2022/09/30 08:37:29;;;;;;;;;;;21.70;64.40;;;;;;4514100;31;20086;-68
2022/09/30 08:39:55;;;;;;;;;;;21.70;64.30;;;;;;4515081;31;20064;-68
2022/09/30 08:42:24;;;;;;;;;;;21.70;64.30;;;;;;4513544;31;20158;-68
2022/09/30 08:44:50;;;;;;;;;;;21.60;64.20;;;;;;4512763;31;20033;-68
2022/09/30 08:47:15;;;;;;;;;;;21.60;64.30;;;;;;4511828;31;20040;-67
2022/09/30 08:50:00;;;;;;;;;;;21.60;64.40;;;;;;4511335;31;21023;-68
2022/09/30 08:52:30;;;;;;;;;;;21.50;64.40;;;;;;4524925;31;20040;-67
2022/09/30 08:54:56;;;;;;;;;;;21.40;64.40;;;;;;4512200;31;20029;-67
2022/09/30 08:57:23;;;;;;;;;;;21.40;64.60;;;;;;4514732;31;20068;-68
2022/09/30 08:59:48;;;;;;;;;;;21.30;65.60;;;;;;4512283;31;20024;-68
2022/09/30 09:02:23;;;;;;;;;;;21.20;64.70;;;;;;4512820;31;20075;-68
2022/09/30 09:04:51;;;;;;;;;;;21.20;65.00;;;;;;4513961;31;20029;-68
2022/09/30 09:07:20;;;;;;;;;;;21.10;64.90;;;;;;4513755;31;20099;-67
2022/09/30 09:09:55;;;;;;;;;;;21.10;65.10;;;;;;4513621;31;20579;-67
2022/09/30 09:12:44;;;;;;;;;;;21.00;66.00;;;;;;4514084;31;20036;-67
2022/09/30 09:15:25;;;;;;;;;;;21.00;64.90;;;;;;4511279;31;20033;-66
2022/09/30 09:18:10;;;;;;;;;;;20.90;65.30;;;;;;4512189;31;20141;-66
2022/09/30 09:20:46;;;;;;;;;;;20.90;65.00;;;;;;4512239;31;20080;-66
2022/09/30 09:23:12;;;;;;;;;;;20.80;65.20;;;;;;4511082;31;20201;-67
2022/09/30 09:25:38;;;;;;;;;;;20.80;64.60;;;;;;4511718;31;20147;-67
2022/09/30 09:28:26;;;;;;;;;;;20.80;64.40;;;;;;4513146;31;20061;-67
2022/09/30 09:30:56;;;;;;;;;;;20.80;64.60;;;;;;4511882;31;20078;-67
2022/09/30 09:33:25;;;;;;;;;;;20.80;65.10;;;;;;4513537;31;20032;-67
2022/09/30 09:35:50;;;;;;;;;;;20.70;65.10;;;;;;4513586;31;20028;-67
2022/09/30 09:38:25;;;;;;;;;;;20.70;65.10;;;;;;4510836;31;20016;-66
2022/09/30 09:40:56;;;;;;;;;;;20.70;65.10;;;;;;4513113;31;20477;-66
2022/09/30 09:43:35;;;;;;;;;;;20.70;65.20;;;;;;4513137;31;20150;-66
2022/09/30 09:46:22;;;;;;;;;;;20.70;65.10;;;;;;4512192;31;20457;-66
2022/09/30 09:48:48;;;;;;;;;;;20.60;65.10;;;;;;4509529;31;20443;-65
2022/09/30 09:51:19;;;;;;;;;;;20.60;65.10;;;;;;4512319;31;20515;-66
2022/09/30 09:53:57;;;;;;;;;;;20.60;65.00;;;;;;4512252;31;20024;-66
2022/09/30 09:56:25;;;;;;;;;;;20.60;65.00;;;;;;4512049;31;20028;-67
2022/09/30 09:59:04;;;;;;;;;;;20.60;64.80;;;;;;4512032;31;20583;-67
2022/09/30 10:01:35;;;;;;;;;;;20.60;65.00;;;;;;4513254;31;20526;-66
2022/09/30 10:04:09;;;;;;;;;;;20.50;64.70;;;;;;4511617;31;20040;-66
2022/09/30 10:07:01;;;;;;;;;;;20.50;64.90;;;;;;4512226;31;20025;-66
2022/09/30 10:09:28;;;;;;;;;;;20.50;64.90;;;;;;4493902;31;20458;-67
2022/09/30 10:12:06;;;;;;;;;;;20.50;64.80;;;;;;4508920;31;20084;-66
2022/09/30 10:14:32;;;;;;;;;;;20.50;64.80;;;;;;4512733;31;20641;-65
2022/09/30 10:16:59;;;;;;;;;;;20.50;64.90;;;;;;4511653;31;20017;-65
2022/09/30 10:19:26;;;;;;;;;;;20.50;64.90;;;;;;4512316;31;20448;-65
2022/09/30 10:22:07;;;;;;;;;;;20.50;65.00;;;;;;4510726;31;20726;-65
2022/09/30 10:24:34;;;;;;;;;;;20.40;64.90;;;;;;4511343;31;20060;-65
2022/09/30 10:26:59;;;;;;;;;;;20.40;64.80;;;;;;4513148;31;20607;-65
2022/09/30 10:29:27;;;;;;;;;;;20.40;64.80;;;;;;4509947;31;20024;-66
2022/09/30 10:31:53;;;;;;;;;;;20.40;64.80;;;;;;4512330;31;20039;-67
2022/09/30 10:34:39;;;;;;;;;;;20.40;64.70;;;;;;4513435;31;20035;-66
2022/09/30 10:37:07;;;;;;;;;;;20.40;64.70;;;;;;4512192;31;20198;-66
2022/09/30 10:39:37;;;;;;;;;;;20.40;64.80;;;;;;4511285;31;20134;-67
2022/09/30 10:42:03;;;;;;;;;;;20.40;64.70;;;;;;4512255;31;20472;-66
2022/09/30 10:44:29;;;;;;;;;;;20.40;64.60;;;;;;4513219;31;20515;-66
2022/09/30 10:47:00;;;;;;;;;;;20.40;64.60;;;;;;4512891;31;20033;-66
2022/09/30 10:49:46;;;;;;;;;;;20.40;64.50;;;;;;4510327;31;20083;-72
2022/09/30 10:52:19;;;;;;;;;;;20.40;64.50;;;;;;4505026;31;20029;-70
2022/09/30 10:54:49;;;;;;;;;;;20.40;64.10;;;;;;4510832;31;20024;-71
2022/09/30 10:57:18;;;;;;;;;;;20.40;63.80;;;;;;4513941;31;20060;-71
2022/09/30 10:59:44;;;;;;;;;;;20.40;63.70;;;;;;4513122;31;20093;-71
2022/09/30 11:02:10;;;;;;;;;;;20.40;64.00;;;;;;4513449;31;20041;-70
2022/09/30 11:04:42;;;;;;;;;;;20.40;64.10;;;;;;4512626;31;20098;-71
2022/09/30 11:07:15;;;;;;;;;;;20.30;64.10;;;;;;4507843;31;20095;-66
2022/09/30 11:10:01;;;;;;;;;;;20.30;64.00;;;;;;4513554;31;20084;-70
2022/09/30 11:12:47;;;;;;;;;;;20.30;64.20;;;;;;4509442;31;20396;-70
2022/09/30 11:15:19;;;;;;;;;;;20.30;63.90;;;;;;4511378;31;20025;-70
2022/09/30 11:17:53;;;;;;;;;;;20.30;63.90;;;;;;4511628;31;20039;-70
2022/09/30 11:20:28;;;;;;;;;;;20.30;63.80;;;;;;4508871;31;20032;-67
2022/09/30 11:22:58;;;;;;;;;;;20.30;63.70;;;;;;4489821;31;25206;-70
2022/09/30 11:25:44;;;;;;;;;;;20.30;63.70;;;;;;4507623;31;20025;-70
2022/09/30 11:28:10;;;;;;;;;;;20.30;63.70;;;;;;4492447;31;20496;-73
2022/09/30 11:30:43;;;;;;;;;;;20.30;63.50;;;;;;4508981;31;20028;-72
2022/09/30 11:33:29;;;;;;;;;;;20.30;63.80;;;;;;4508810;31;20051;-71
2022/09/30 11:36:13;;;;;;;;;;;20.30;63.60;;;;;;4499620;31;20080;-70
2022/09/30 11:38:42;;;;;;;;;;;20.30;63.80;;;;;;4510605;31;20186;-69
2022/09/30 11:41:09;;;;;;;;;;;20.30;63.90;;;;;;4511341;31;20068;-70
2022/09/30 11:43:54;;;;;;;;;;;20.30;63.50;;;;;;4509499;31;20044;-70
2022/09/30 11:46:23;;;;;;;;;;;20.30;63.70;;;;;;4510596;31;20044;-68
2022/09/30 11:49:04;;;;;;;;;;;20.20;63.40;;;;;;4512306;31;20172;-70
2022/09/30 11:51:42;;;;;;;;;;;20.30;63.80;;;;;;4511887;31;20021;-70
2022/09/30 11:54:07;;;;;;;;;;;20.20;63.50;;;;;;4511860;31;20060;-69
2022/09/30 11:56:53;;;;;;;;;;;20.20;63.70;;;;;;4510171;31;20036;-67
2022/09/30 11:59:19;;;;;;;;;;;20.20;63.70;;;;;;4508793;31;20068;-68
2022/09/30 12:01:48;;;;;;;;;;;20.20;63.90;;;;;;4511821;31;20017;-67
2022/09/30 12:04:14;;;;;;;;;;;20.20;64.10;;;;;;4503394;31;20066;-68
2022/09/30 12:06:45;;;;;;;;;;;20.20;64.90;;;;;;4507697;31;20048;-66
2022/09/30 12:09:17;;;;;;;;;;;20.20;64.80;;;;;;4511242;31;20035;-66
2022/09/30 12:11:48;;;;;;;;;;;20.20;64.90;;;;;;4509018;31;20057;-67
2022/09/30 12:14:26;;;;;;;;;;;20.20;64.90;;;;;;4511335;31;20174;-71
2022/09/30 12:16:55;;;;;;;;;;;20.20;64.60;;;;;;4512484;31;20103;-70
2022/09/30 12:19:27;;;;;;;;;;;20.20;64.80;;;;;;4512445;31;20137;-70
2022/09/30 12:21:56;;;;;;;;;;;20.20;64.80;;;;;;4511116;31;20024;-69
2022/09/30 12:24:22;;;;;;;;;;;20.30;64.90;;;;;;4509781;31;20049;-71
2022/09/30 12:26:48;;;;;;;;;;;20.20;64.90;;;;;;4512424;31;20020;-68
2022/09/30 12:32:52;;;;;;;;;;;20.30;65.10;;;;;;4513523;31;20655;-71
2022/09/30 12:35:29;;;;;;;;;;;20.30;65.10;;;;;;4525498;31;20052;-71
2022/09/30 12:38:04;;;;;;;;;;;20.30;65.10;;;;;;4513608;31;20086;-71
2022/09/30 12:40:39;;;;;;;;;;;20.30;65.00;;;;;;4514184;31;20206;-71
2022/09/30 12:43:21;;;;;;;;;;;20.30;65.10;;;;;;4512409;31;20043;-70
2022/09/30 12:45:53;;;;;;;;;;;20.30;65.10;;;;;;4512910;31;20119;-71
2022/09/30 12:48:21;;;;;;;;;;;20.30;65.00;;;;;;4513290;31;20083;-69
2022/09/30 12:50:48;;;;;;;;;;;20.30;65.00;;;;;;4512635;31;20053;-70
2022/09/30 12:53:25;;;;;;;;;;;20.30;65.00;;;;;;4512334;31;20020;-69
2022/09/30 12:55:51;;;;;;;;;;;20.30;65.00;;;;;;4513824;31;20147;-70
2022/09/30 12:58:20;;;;;;;;;;;20.30;64.90;;;;;;4512953;31;20044;-70
2022/09/30 13:01:05;;;;;;;;;;;20.30;65.00;;;;;;4512965;31;20077;-71
2022/09/30 13:04:03;;;;;;;;;;;20.30;64.90;;;;;;4512621;31;20053;-71
2022/09/30 13:06:44;;;;;;;;;;;20.30;64.90;;;;;;4485128;31;20141;-72
2022/09/30 13:09:10;;;;;;;;;;;20.20;64.80;;;;;;4512472;31;20061;-69
2022/09/30 13:11:40;;;;;;;;;;;20.20;65.00;;;;;;4512949;31;20122;-71
2022/09/30 13:14:18;;;;;;;;;;;20.20;64.80;;;;;;4513237;31;20040;-71
2022/09/30 13:17:03;;;;;;;;;;;20.20;65.00;;;;;;4512949;31;20033;-71
2022/09/30 13:19:35;;;;;;;;;;;20.30;65.00;;;;;;4513431;31;20037;-72
2022/09/30 13:22:28;;;;;;;;;;;20.20;65.10;;;;;;4512196;31;20029;-69
2022/09/30 13:24:59;;;;;;;;;;;20.20;64.90;;;;;;4511835;31;20041;-69
2022/09/30 13:27:38;;;;;;;;;;;20.20;65.10;;;;;;4511156;31;20032;-70
2022/09/30 13:30:13;;;;;;;;;;;20.20;65.30;;;;;;4513104;31;20032;-71
2022/09/30 13:32:41;;;;;;;;;;;20.20;65.40;;;;;;4511273;31;20039;-71
2022/09/30 13:35:25;;;;;;;;;;;20.20;65.50;;;;;;4514484;31;20039;-71
2022/09/30 13:38:10;;;;;;;;;;;20.20;65.80;;;;;;4512334;31;20025;-71
2022/09/30 13:40:38;;;;;;;;;;;20.20;65.80;;;;;;4513987;31;20133;-69
2022/09/30 13:43:04;;;;;;;;;;;20.20;66.60;;;;;;4513837;31;20021;-68
2022/09/30 13:45:34;;;;;;;;;;;20.20;65.60;;;;;;4513095;31;20039;-69
2022/09/30 13:48:12;;;;;;;;;;;20.20;65.50;;;;;;4505121;31;20025;-68
2022/09/30 13:50:44;;;;;;;;;;;20.20;65.70;;;;;;4508441;31;20047;-68
2022/09/30 13:53:14;;;;;;;;;;;20.20;65.50;;;;;;4513358;31;20394;-69
2022/09/30 13:55:48;;;;;;;;;;;20.20;65.40;;;;;;4513750;31;20086;-69
2022/09/30 13:58:33;;;;;;;;;;;20.30;65.60;;;;;;4501735;31;20040;-69
2022/09/30 14:01:06;;;;;;;;;;;20.30;65.60;;;;;;4513086;31;20040;-68
2022/09/30 14:03:51;;;;;;;;;;;20.30;65.60;;;;;;4511838;31;20171;-69
2022/09/30 14:06:40;;;;;;;;;;;20.30;65.50;;;;;;4512539;31;20025;-68
2022/09/30 14:09:13;;;;;;;;;;;20.30;65.60;;;;;;4504352;31;20117;-68
2022/09/30 14:11:48;;;;;;;;;;;20.30;65.60;;;;;;4513547;31;20086;-68
2022/09/30 14:14:31;;;;;;;;;;;20.30;65.60;;;;;;4512944;31;20178;-69
2022/09/30 14:17:00;;;;;;;;;;;20.30;65.50;;;;;;4513208;31;20086;-69
2022/09/30 14:19:32;;;;;;;;;;;20.30;65.40;;;;;;4512213;31;20167;-69
2022/09/30 14:22:01;;;;;;;;;;;20.30;65.50;;;;;;4511482;31;20522;-69
2022/09/30 14:24:32;;;;;;;;;;;20.30;65.40;;;;;;4511009;31;20040;-69
2022/09/30 14:27:01;;;;;;;;;;;20.40;65.30;;;;;;4513762;31;20500;-70
2022/09/30 14:29:30;;;;;;;;;;;20.30;65.20;;;;;;4510900;31;20032;-69
2022/09/30 14:31:58;;;;;;;;;;;20.30;65.20;;;;;;4512667;31;20032;-70
2022/09/30 14:34:25;;;;;;;;;;;20.30;65.20;;;;;;4512229;31;20029;-69
2022/09/30 14:36:52;;;;;;;;;;;20.40;65.20;;;;;;4512628;31;20043;-69
2022/09/30 14:39:27;;;;;;;;;;;20.40;65.20;;;;;;4512420;31;20032;-68
2022/09/30 14:41:55;;;;;;;;;;;20.40;65.20;;;;;;4512660;31;20095;-70